createdAt,value
2019-05-17T00:00:27.372Z,990.90
2019-05-17T00:01:27.044Z,990.87
2019-05-17T00:02:26.589Z,990.87
2019-05-17T00:03:27.019Z,990.83
2019-05-17T00:04:27.006Z,990.81
2019-05-17T00:05:26.469Z,990.84
2019-05-17T00:06:27.554Z,990.80
2019-05-17T00:07:27.253Z,990.79
2019-05-17T00:08:34.328Z,990.79
2019-05-17T00:09:26.877Z,990.76
2019-05-17T00:10:26.468Z,990.73
2019-05-17T00:11:27.366Z,990.76
2019-05-17T00:12:27.143Z,990.70
2019-05-17T00:13:26.875Z,990.72
2019-05-17T00:14:27.153Z,990.74
2019-05-17T00:15:27.325Z,990.74
2019-05-17T00:16:26.828Z,990.72
2019-05-17T00:17:26.745Z,990.68
2019-05-17T00:18:26.458Z,990.67
2019-05-17T00:19:26.301Z,990.65
2019-05-17T00:20:26.647Z,990.65
2019-05-17T00:21:27.487Z,990.60
2019-05-17T00:22:27.024Z,990.58
2019-05-17T00:23:26.903Z,990.57
2019-05-17T00:24:26.533Z,990.61
2019-05-17T00:25:27.355Z,990.56
2019-05-17T00:26:26.977Z,990.56
2019-05-17T00:27:26.488Z,990.54
2019-05-17T00:28:26.916Z,990.53
2019-05-17T00:29:26.446Z,990.52
2019-05-17T00:30:26.612Z,990.50
2019-05-17T00:31:26.323Z,990.47
2019-05-17T00:32:27.482Z,990.46
2019-05-17T00:33:27.238Z,990.44
2019-05-17T00:34:27.065Z,990.40
2019-05-17T00:35:26.769Z,990.43
2019-05-17T00:36:26.933Z,990.41
2019-05-17T00:37:26.473Z,990.42
2019-05-17T00:38:27.449Z,990.38
2019-05-17T00:39:27.158Z,990.38
2019-05-17T00:40:27.018Z,990.38
2019-05-17T00:41:26.924Z,990.40
2019-05-17T00:42:26.466Z,990.39
2019-05-17T00:43:26.221Z,990.37
2019-05-17T00:44:27.203Z,990.41
2019-05-17T00:45:26.741Z,990.33
2019-05-17T00:46:26.649Z,990.31
2019-05-17T00:47:26.625Z,990.34
2019-05-17T00:48:26.485Z,990.30
2019-05-17T00:49:26.440Z,990.25
2019-05-17T00:50:27.550Z,990.27
2019-05-17T00:51:27.254Z,990.28
2019-05-17T00:52:27.167Z,990.22
2019-05-17T00:53:26.887Z,990.23
2019-05-17T00:54:26.931Z,990.21
2019-05-17T00:55:26.826Z,990.22
2019-05-17T00:56:26.602Z,990.24
2019-05-17T00:57:27.185Z,990.21
2019-05-17T00:58:26.295Z,990.17
2019-05-17T00:59:26.282Z,990.18
2019-05-17T01:00:27.632Z,990.15
2019-05-17T01:01:26.988Z,990.14
2019-05-17T01:02:27.027Z,990.14
2019-05-17T01:03:26.987Z,990.10
2019-05-17T01:04:27.462Z,990.16
2019-05-17T01:05:27.332Z,990.13
2019-05-17T01:06:27.367Z,990.11
2019-05-17T01:07:26.896Z,990.12
2019-05-17T01:08:26.549Z,990.15
2019-05-17T01:09:27.165Z,990.09
2019-05-17T01:10:27.097Z,990.11
2019-05-17T01:11:26.964Z,990.08
2019-05-17T01:12:26.990Z,990.18
2019-05-17T01:13:26.774Z,990.08
2019-05-17T01:14:26.547Z,990.03
2019-05-17T01:15:27.173Z,990.03
2019-05-17T01:16:27.100Z,990.04
2019-05-17T01:17:26.949Z,990.00
2019-05-17T01:18:26.880Z,990.01
2019-05-17T01:19:26.881Z,989.98
2019-05-17T01:20:24.877Z,989.96
2019-05-17T01:21:26.296Z,989.96
2019-05-17T01:22:26.281Z,989.99
2019-05-17T01:23:26.967Z,989.95
2019-05-17T01:24:24.801Z,989.95
2019-05-17T01:25:27.142Z,989.91
2019-05-17T01:26:26.703Z,989.89
2019-05-17T01:27:26.381Z,989.91
2019-05-17T01:28:26.773Z,989.88
2019-05-17T01:29:26.709Z,989.85
2019-05-17T01:30:26.646Z,989.83
2019-05-17T01:31:26.583Z,989.81
2019-05-17T01:32:26.619Z,989.84
2019-05-17T01:33:26.439Z,989.83
2019-05-17T01:34:27.074Z,989.84
2019-05-17T01:35:26.605Z,989.76
2019-05-17T01:36:26.373Z,989.74
2019-05-17T01:37:24.703Z,989.78
2019-05-17T01:38:26.783Z,989.77
2019-05-17T01:39:26.722Z,989.75
2019-05-17T01:40:26.476Z,989.75
2019-05-17T01:41:26.550Z,989.80
2019-05-17T01:42:26.506Z,989.79
2019-05-17T01:43:24.607Z,989.75
2019-05-17T01:44:24.612Z,989.78
2019-05-17T01:45:26.814Z,989.76
2019-05-17T01:46:26.531Z,989.75
2019-05-17T01:47:24.549Z,989.73
2019-05-17T01:48:26.917Z,989.78
2019-05-17T01:49:26.940Z,989.72
2019-05-17T01:50:26.521Z,989.74
2019-05-17T01:51:26.308Z,989.73
2019-05-17T01:52:24.486Z,989.74
2019-05-17T01:53:26.885Z,989.71
2019-05-17T01:54:26.760Z,989.70
2019-05-17T01:55:26.422Z,989.65
2019-05-17T01:56:26.270Z,989.69
2019-05-17T01:57:24.432Z,989.67
2019-05-17T01:58:26.590Z,989.70
2019-05-17T01:59:26.614Z,989.67
2019-05-17T02:00:26.553Z,989.60
2019-05-17T02:01:24.389Z,989.63
2019-05-17T02:02:24.433Z,989.59
2019-05-17T02:03:26.623Z,989.61
2019-05-17T02:04:26.659Z,989.60
2019-05-17T02:05:24.349Z,989.59
2019-05-17T02:06:24.360Z,989.55
2019-05-17T02:07:26.617Z,989.57
2019-05-17T02:08:26.305Z,989.58
2019-05-17T02:09:34.873Z,989.55
2019-05-17T02:10:27.155Z,989.59
2019-05-17T02:11:26.758Z,989.54
2019-05-17T02:12:26.612Z,989.52
2019-05-17T02:13:26.646Z,989.53
2019-05-17T02:14:26.636Z,989.56
2019-05-17T02:15:26.642Z,989.51
2019-05-17T02:16:26.614Z,989.54
2019-05-17T02:17:26.459Z,989.50
2019-05-17T02:18:26.436Z,989.55
2019-05-17T02:19:26.432Z,989.54
2019-05-17T02:20:24.223Z,989.47
2019-05-17T02:21:24.171Z,989.51
2019-05-17T02:22:24.164Z,989.54
2019-05-17T02:23:24.177Z,989.47
2019-05-17T02:24:24.152Z,989.51
2019-05-17T02:25:24.126Z,989.55
2019-05-17T02:26:26.554Z,989.50
2019-05-17T02:27:25.393Z,989.49
2019-05-17T02:28:24.093Z,989.47
2019-05-17T02:29:24.087Z,989.47
2019-05-17T02:30:24.097Z,989.52
2019-05-17T02:31:24.763Z,989.49
2019-05-17T02:32:24.244Z,989.44
2019-05-17T02:33:24.039Z,989.44
2019-05-17T02:34:24.028Z,989.45
2019-05-17T02:35:24.016Z,989.44
2019-05-17T02:36:24.028Z,989.46
2019-05-17T02:37:23.995Z,989.43
2019-05-17T02:38:24.039Z,989.45
2019-05-17T02:39:23.974Z,989.45
2019-05-17T02:40:23.968Z,989.42
2019-05-17T02:41:23.954Z,989.39
2019-05-17T02:42:23.966Z,989.43
2019-05-17T02:43:23.934Z,989.39
2019-05-17T02:44:23.961Z,989.39
2019-05-17T02:45:23.908Z,989.37
2019-05-17T02:46:23.927Z,989.38
2019-05-17T02:47:23.894Z,989.41
2019-05-17T02:48:23.886Z,989.37
2019-05-17T02:49:23.868Z,989.34
2019-05-17T02:50:23.892Z,989.35
2019-05-17T02:51:24.065Z,989.35
2019-05-17T02:52:23.831Z,989.36
2019-05-17T02:53:23.822Z,989.32
2019-05-17T02:54:23.834Z,989.29
2019-05-17T02:55:23.804Z,989.29
2019-05-17T02:56:23.833Z,989.29
2019-05-17T02:57:23.779Z,989.33
2019-05-17T02:58:23.775Z,989.27
2019-05-17T02:59:23.760Z,989.29
2019-05-17T03:00:24.227Z,989.24
2019-05-17T03:01:23.732Z,989.28
2019-05-17T03:02:27.689Z,989.28
2019-05-17T03:03:23.934Z,989.24
2019-05-17T03:04:23.788Z,989.24
2019-05-17T03:05:23.690Z,989.24
2019-05-17T03:06:23.703Z,989.27
2019-05-17T03:07:23.672Z,989.26
2019-05-17T03:08:23.847Z,989.23
2019-05-17T03:09:23.646Z,989.22
2019-05-17T03:10:28.779Z,989.22
2019-05-17T03:11:24.623Z,989.18
2019-05-17T03:12:23.830Z,989.21
2019-05-17T03:13:23.633Z,989.19
2019-05-17T03:14:23.628Z,989.15
2019-05-17T03:15:23.667Z,989.19
2019-05-17T03:16:23.918Z,989.13
2019-05-17T03:17:23.559Z,989.15
2019-05-17T03:18:23.568Z,989.14
2019-05-17T03:19:23.762Z,989.16
2019-05-17T03:20:23.557Z,989.15
2019-05-17T03:21:23.516Z,989.15
2019-05-17T03:22:23.513Z,989.13
2019-05-17T03:23:23.747Z,989.16
2019-05-17T03:24:23.504Z,989.13
2019-05-17T03:25:24.022Z,989.16
2019-05-17T03:26:23.509Z,989.14
2019-05-17T03:27:23.539Z,989.16
2019-05-17T03:28:23.883Z,989.15
2019-05-17T03:29:23.439Z,989.14
2019-05-17T03:30:25.831Z,989.15
2019-05-17T03:31:26.520Z,989.08
2019-05-17T03:32:26.502Z,989.15
2019-05-17T03:33:26.662Z,989.07
2019-05-17T03:34:26.361Z,989.09
2019-05-17T03:35:26.717Z,989.12
2019-05-17T03:36:26.038Z,989.09
2019-05-17T03:37:30.247Z,989.06
2019-05-17T03:38:24.377Z,989.08
2019-05-17T03:39:23.316Z,989.08
2019-05-17T03:40:55.442Z,989.06
2019-05-17T03:41:28.928Z,989.07
2019-05-17T03:42:24.301Z,989.03
2019-05-17T03:43:23.284Z,989.04
2019-05-17T03:44:23.310Z,989.10
2019-05-17T03:45:23.254Z,989.03
2019-05-17T03:46:23.480Z,989.05
2019-05-17T03:47:23.258Z,989.05
2019-05-17T03:48:23.247Z,989.05
2019-05-17T03:49:23.222Z,989.06
2019-05-17T03:50:23.232Z,989.10
2019-05-17T03:51:23.543Z,989.08
2019-05-17T03:52:23.179Z,989.00
2019-05-17T03:53:23.181Z,989.05
2019-05-17T03:54:23.178Z,989.06
2019-05-17T03:55:23.622Z,989.05
2019-05-17T03:56:23.165Z,989.04
2019-05-17T03:57:24.086Z,989.05
2019-05-17T03:58:23.599Z,989.06
2019-05-17T03:59:24.248Z,989.04
2019-05-17T04:00:23.435Z,989.01
2019-05-17T04:01:23.426Z,989.05
2019-05-17T04:02:23.290Z,989.04
2019-05-17T04:03:23.377Z,989.02
2019-05-17T04:04:23.150Z,989.04
2019-05-17T04:05:23.033Z,989.02
2019-05-17T04:06:23.831Z,989.01
2019-05-17T04:07:23.790Z,989.03
2019-05-17T04:08:23.181Z,989.00
2019-05-17T04:09:22.988Z,988.98
2019-05-17T04:10:23.093Z,989.00
2019-05-17T04:11:31.373Z,988.97
2019-05-17T04:12:23.956Z,988.99
2019-05-17T04:13:23.614Z,989.01
2019-05-17T04:14:22.978Z,989.02
2019-05-17T04:15:23.932Z,989.00
2019-05-17T04:16:23.807Z,988.98
2019-05-17T04:17:23.021Z,988.99
2019-05-17T04:18:23.661Z,988.98
2019-05-17T04:19:23.149Z,989.00
2019-05-17T04:20:22.920Z,989.04
2019-05-17T04:21:23.660Z,989.06
2019-05-17T04:22:23.859Z,989.03
2019-05-17T04:23:23.436Z,989.04
2019-05-17T04:24:23.216Z,989.07
2019-05-17T04:25:23.471Z,989.02
2019-05-17T04:26:23.037Z,989.05
2019-05-17T04:27:23.141Z,989.01
2019-05-17T04:28:23.269Z,989.05
2019-05-17T04:29:22.916Z,989.05
2019-05-17T04:30:23.478Z,989.04
2019-05-17T04:31:22.984Z,989.02
2019-05-17T04:32:23.471Z,989.02
2019-05-17T04:33:23.500Z,989.01
2019-05-17T04:34:22.713Z,989.07
2019-05-17T04:35:23.428Z,988.99
2019-05-17T04:36:22.786Z,989.05
2019-05-17T04:37:23.120Z,989.01
2019-05-17T04:38:23.557Z,989.04
2019-05-17T04:39:22.794Z,989.03
2019-05-17T04:40:23.248Z,988.98
2019-05-17T04:41:39.526Z,988.95
2019-05-17T04:42:23.626Z,988.97
2019-05-17T04:43:23.221Z,988.99
2019-05-17T04:44:23.247Z,988.98
2019-05-17T04:45:23.292Z,989.00
2019-05-17T04:46:23.628Z,988.96
2019-05-17T04:47:23.156Z,989.00
2019-05-17T04:48:23.359Z,988.99
2019-05-17T04:49:24.264Z,988.97
2019-05-17T04:50:23.235Z,989.01
2019-05-17T04:51:23.301Z,988.98
2019-05-17T04:52:22.934Z,989.01
2019-05-17T04:53:23.358Z,988.98
2019-05-17T04:54:22.816Z,989.01
2019-05-17T04:55:23.196Z,988.99
2019-05-17T04:56:22.890Z,988.96
2019-05-17T04:57:23.258Z,988.95
2019-05-17T04:58:23.299Z,988.97
2019-05-17T04:59:24.307Z,988.97
2019-05-17T05:00:22.434Z,988.97
2019-05-17T05:01:23.590Z,988.98
2019-05-17T05:02:23.678Z,988.93
2019-05-17T05:03:23.160Z,988.94
2019-05-17T05:04:22.716Z,988.89
2019-05-17T05:05:23.004Z,988.94
2019-05-17T05:06:23.377Z,988.93
2019-05-17T05:07:22.681Z,988.92
2019-05-17T05:08:22.685Z,988.92
2019-05-17T05:09:23.087Z,988.87
2019-05-17T05:10:22.695Z,988.90
2019-05-17T05:11:23.343Z,988.90
2019-05-17T05:12:22.816Z,988.90
2019-05-17T05:13:22.882Z,988.95
2019-05-17T05:14:23.282Z,988.92
2019-05-17T05:15:22.633Z,988.95
2019-05-17T05:16:22.623Z,988.91
2019-05-17T05:17:22.323Z,988.97
2019-05-17T05:18:22.376Z,988.93
2019-05-17T05:19:22.447Z,988.90
2019-05-17T05:20:22.273Z,988.89
2019-05-17T05:21:23.010Z,988.88
2019-05-17T05:22:22.580Z,988.84
2019-05-17T05:23:23.876Z,988.84
2019-05-17T05:24:22.366Z,988.84
2019-05-17T05:25:22.163Z,988.82
2019-05-17T05:26:22.362Z,988.84
2019-05-17T05:27:22.341Z,988.84
2019-05-17T05:28:22.611Z,988.87
2019-05-17T05:29:22.111Z,988.86
2019-05-17T05:30:22.512Z,988.83
2019-05-17T05:31:22.792Z,988.84
2019-05-17T05:32:22.152Z,988.86
2019-05-17T05:33:22.320Z,988.87
2019-05-17T05:34:22.053Z,988.86
2019-05-17T05:35:22.454Z,988.85
2019-05-17T05:36:22.171Z,988.86
2019-05-17T05:37:23.157Z,988.82
2019-05-17T05:38:22.191Z,988.81
2019-05-17T05:39:22.869Z,988.82
2019-05-17T05:40:22.000Z,988.79
2019-05-17T05:41:22.570Z,988.80
2019-05-17T05:42:22.140Z,988.79
2019-05-17T05:43:22.559Z,988.85
2019-05-17T05:44:22.235Z,988.82
2019-05-17T05:45:22.515Z,988.86
2019-05-17T05:46:22.417Z,988.81
2019-05-17T05:47:22.251Z,988.80
2019-05-17T05:48:21.905Z,988.82
2019-05-17T05:49:21.894Z,988.83
2019-05-17T05:50:21.978Z,988.82
2019-05-17T05:51:21.894Z,988.83
2019-05-17T05:52:21.996Z,988.87
2019-05-17T05:53:22.005Z,988.86
2019-05-17T05:54:22.538Z,988.85
2019-05-17T05:55:23.466Z,988.85
2019-05-17T05:56:22.169Z,988.84
2019-05-17T05:57:22.058Z,988.81
2019-05-17T05:58:24.024Z,988.79
2019-05-17T05:59:22.451Z,988.82
2019-05-17T06:00:22.196Z,988.81
2019-05-17T06:01:22.065Z,988.81
2019-05-17T06:02:21.946Z,988.75
2019-05-17T06:03:22.525Z,988.77
2019-05-17T06:04:22.335Z,988.77
2019-05-17T06:05:21.989Z,988.81
2019-05-17T06:06:21.737Z,988.76
2019-05-17T06:07:21.800Z,988.74
2019-05-17T06:08:22.679Z,988.74
2019-05-17T06:09:22.289Z,988.76
2019-05-17T06:10:21.897Z,988.73
2019-05-17T06:11:21.744Z,988.77
2019-05-17T06:12:27.689Z,988.77
2019-05-17T06:13:22.677Z,988.79
2019-05-17T06:14:21.739Z,988.79
2019-05-17T06:15:21.999Z,988.79
2019-05-17T06:16:22.751Z,988.73
2019-05-17T06:17:21.740Z,988.71
2019-05-17T06:18:22.656Z,988.74
2019-05-17T06:19:22.387Z,988.80
2019-05-17T06:20:22.441Z,988.74
2019-05-17T06:21:22.653Z,988.75
2019-05-17T06:22:22.416Z,988.74
2019-05-17T06:23:23.421Z,988.77
2019-05-17T06:24:22.520Z,988.73
2019-05-17T06:25:23.405Z,988.74
2019-05-17T06:26:23.753Z,988.71
2019-05-17T06:27:21.657Z,988.72
2019-05-17T06:28:22.351Z,988.72
2019-05-17T06:29:22.146Z,988.68
2019-05-17T06:30:22.072Z,988.72
2019-05-17T06:31:23.940Z,988.72
2019-05-17T06:32:22.822Z,988.76
2019-05-17T06:33:30.539Z,988.77
2019-05-17T06:34:22.466Z,988.78
2019-05-17T06:35:21.847Z,988.75
2019-05-17T06:36:21.769Z,988.72
2019-05-17T06:37:22.369Z,988.75
2019-05-17T06:38:22.447Z,988.77
2019-05-17T06:39:22.409Z,988.73
2019-05-17T06:40:21.718Z,988.71
2019-05-17T06:41:21.627Z,988.74
2019-05-17T06:42:25.887Z,988.73
2019-05-17T06:43:22.330Z,988.70
2019-05-17T06:44:21.665Z,988.68
2019-05-17T06:45:22.054Z,988.66
2019-05-17T06:46:21.961Z,988.70
2019-05-17T06:47:22.545Z,988.71
2019-05-17T06:48:22.470Z,988.70
2019-05-17T06:49:22.450Z,988.68
2019-05-17T06:50:23.492Z,988.73
2019-05-17T06:51:22.066Z,988.71
2019-05-17T06:52:22.580Z,988.73
2019-05-17T06:53:21.933Z,988.72
2019-05-17T06:54:21.665Z,988.73
2019-05-17T06:55:21.256Z,988.70
2019-05-17T06:56:22.956Z,988.74
2019-05-17T06:57:23.321Z,988.72
2019-05-17T06:58:22.280Z,988.75
2019-05-17T06:59:21.125Z,988.71
2019-05-17T07:00:23.909Z,988.66
2019-05-17T07:01:21.147Z,988.69
2019-05-17T07:02:21.092Z,988.69
2019-05-17T07:03:21.079Z,988.69
2019-05-17T07:04:21.068Z,988.67
2019-05-17T07:05:21.061Z,988.66
2019-05-17T07:06:21.537Z,988.66
2019-05-17T07:07:21.083Z,988.64
2019-05-17T07:08:21.029Z,988.65
2019-05-17T07:09:21.017Z,988.64
2019-05-17T07:10:21.083Z,988.60
2019-05-17T07:11:21.179Z,988.64
2019-05-17T07:12:21.028Z,988.58
2019-05-17T07:13:21.042Z,988.62
2019-05-17T07:14:20.970Z,988.61
2019-05-17T07:15:20.949Z,988.57
2019-05-17T07:16:21.003Z,988.60
2019-05-17T07:17:20.944Z,988.55
2019-05-17T07:18:20.918Z,988.59
2019-05-17T07:19:20.942Z,988.55
2019-05-17T07:20:20.895Z,988.60
2019-05-17T07:21:20.899Z,988.55
2019-05-17T07:22:21.328Z,988.60
2019-05-17T07:23:20.867Z,988.60
2019-05-17T07:24:20.855Z,988.60
2019-05-17T07:25:20.907Z,988.60
2019-05-17T07:26:20.830Z,988.62
2019-05-17T07:27:20.852Z,988.58
2019-05-17T07:28:20.809Z,988.54
2019-05-17T07:29:20.805Z,988.56
2019-05-17T07:30:20.789Z,988.55
2019-05-17T07:31:23.088Z,988.53
2019-05-17T07:32:20.768Z,988.53
2019-05-17T07:33:20.773Z,988.56
2019-05-17T07:34:20.746Z,988.52
2019-05-17T07:35:20.737Z,988.50
2019-05-17T07:36:20.746Z,988.49
2019-05-17T07:37:20.747Z,988.51
2019-05-17T07:38:20.711Z,988.50
2019-05-17T07:39:20.724Z,988.49
2019-05-17T07:40:20.682Z,988.49
2019-05-17T07:41:20.674Z,988.48
2019-05-17T07:42:20.658Z,988.44
2019-05-17T07:43:20.996Z,988.49
2019-05-17T07:44:20.639Z,988.51
2019-05-17T07:45:20.643Z,988.44
2019-05-17T07:46:20.794Z,988.41
2019-05-17T07:47:20.602Z,988.43
2019-05-17T07:48:20.598Z,988.48
2019-05-17T07:49:20.619Z,988.44
2019-05-17T07:50:20.574Z,988.42
2019-05-17T07:51:20.577Z,988.40
2019-05-17T07:52:20.689Z,988.36
2019-05-17T07:53:20.540Z,988.38
2019-05-17T07:54:20.536Z,988.40
2019-05-17T07:55:22.976Z,988.38
2019-05-17T07:56:20.508Z,988.37
2019-05-17T07:57:20.757Z,988.36
2019-05-17T07:58:21.458Z,988.39
2019-05-17T07:59:20.478Z,988.34
2019-05-17T08:00:20.476Z,988.31
2019-05-17T08:01:20.626Z,988.32
2019-05-17T08:02:20.483Z,988.31
2019-05-17T08:03:21.279Z,988.27
2019-05-17T08:04:20.535Z,988.28
2019-05-17T08:05:21.436Z,988.27
2019-05-17T08:06:20.405Z,988.26
2019-05-17T08:07:20.443Z,988.27
2019-05-17T08:08:20.937Z,988.24
2019-05-17T08:09:20.542Z,988.22
2019-05-17T08:10:20.532Z,988.18
2019-05-17T08:11:20.344Z,988.19
2019-05-17T08:12:20.333Z,988.16
2019-05-17T08:13:27.313Z,988.17
2019-05-17T08:14:30.083Z,988.21
2019-05-17T08:15:21.329Z,988.21
2019-05-17T08:16:20.299Z,988.17
2019-05-17T08:17:20.276Z,988.19
2019-05-17T08:18:20.488Z,988.18
2019-05-17T08:19:20.522Z,988.19
2019-05-17T08:20:20.457Z,988.21
2019-05-17T08:21:20.250Z,988.20
2019-05-17T08:22:20.332Z,988.20
2019-05-17T08:23:20.392Z,988.16
2019-05-17T08:24:20.206Z,988.18
2019-05-17T08:25:20.477Z,988.18
2019-05-17T08:26:20.192Z,988.20
2019-05-17T08:27:20.259Z,988.14
2019-05-17T08:28:21.573Z,988.18
2019-05-17T08:29:20.383Z,988.18
2019-05-17T08:30:20.778Z,988.15
2019-05-17T08:31:20.342Z,988.14
2019-05-17T08:32:20.811Z,988.14
2019-05-17T08:33:20.112Z,988.11
2019-05-17T08:34:20.094Z,988.14
2019-05-17T08:35:20.084Z,988.12
2019-05-17T08:36:20.271Z,988.06
2019-05-17T08:37:20.523Z,988.13
2019-05-17T08:38:20.054Z,988.14
2019-05-17T08:39:20.041Z,988.10
2019-05-17T08:40:20.250Z,988.10
2019-05-17T08:41:20.858Z,988.11
2019-05-17T08:42:20.540Z,988.11
2019-05-17T08:43:21.374Z,988.12
2019-05-17T08:44:19.983Z,988.11
2019-05-17T08:45:20.640Z,988.12
2019-05-17T08:46:19.991Z,988.09
2019-05-17T08:47:20.918Z,988.06
2019-05-17T08:48:20.674Z,988.02
2019-05-17T08:49:20.276Z,987.99
2019-05-17T08:50:20.216Z,987.99
2019-05-17T08:51:19.909Z,988.02
2019-05-17T08:52:20.157Z,987.98
2019-05-17T08:53:20.052Z,987.93
2019-05-17T08:54:19.879Z,987.94
2019-05-17T08:55:20.510Z,987.97
2019-05-17T08:56:20.530Z,987.95
2019-05-17T08:57:20.636Z,987.95
2019-05-17T08:58:21.563Z,987.95
2019-05-17T08:59:20.188Z,987.98
2019-05-17T09:00:20.749Z,987.98
2019-05-17T09:01:19.837Z,987.96
2019-05-17T09:02:20.017Z,987.99
2019-05-17T09:03:19.817Z,987.90
2019-05-17T09:04:20.168Z,987.88
2019-05-17T09:05:21.208Z,987.85
2019-05-17T09:06:19.946Z,987.85
2019-05-17T09:07:20.336Z,987.90
2019-05-17T09:08:20.492Z,987.79
2019-05-17T09:09:20.451Z,987.80
2019-05-17T09:10:20.753Z,987.81
2019-05-17T09:11:19.820Z,987.81
2019-05-17T09:12:20.625Z,987.80
2019-05-17T09:13:19.784Z,987.77
2019-05-17T09:14:21.461Z,987.76
2019-05-17T09:15:20.321Z,987.79
2019-05-17T09:16:19.780Z,987.74
2019-05-17T09:17:19.700Z,987.73
2019-05-17T09:18:20.595Z,987.73
2019-05-17T09:19:19.636Z,987.76
2019-05-17T09:20:20.403Z,987.75
2019-05-17T09:21:21.868Z,987.75
2019-05-17T09:22:19.885Z,987.77
2019-05-17T09:23:19.871Z,987.73
2019-05-17T09:24:19.557Z,987.72
2019-05-17T09:25:21.937Z,987.74
2019-05-17T09:26:20.088Z,987.73
2019-05-17T09:27:19.914Z,987.73
2019-05-17T09:28:20.463Z,987.73
2019-05-17T09:29:20.093Z,987.70
2019-05-17T09:30:20.332Z,987.71
2019-05-17T09:31:20.429Z,987.68
2019-05-17T09:32:20.097Z,987.66
2019-05-17T09:33:19.457Z,987.70
2019-05-17T09:34:20.244Z,987.72
2019-05-17T09:35:20.842Z,987.71
2019-05-17T09:36:20.519Z,987.63
2019-05-17T09:37:22.372Z,987.63
2019-05-17T09:38:20.355Z,987.62
2019-05-17T09:39:20.051Z,987.67
2019-05-17T09:40:20.069Z,987.60
2019-05-17T09:41:20.016Z,987.57
2019-05-17T09:42:20.939Z,987.57
2019-05-17T09:43:20.477Z,987.61
2019-05-17T09:44:20.673Z,987.57
2019-05-17T09:45:20.124Z,987.53
2019-05-17T09:46:19.767Z,987.49
2019-05-17T09:47:20.666Z,987.54
2019-05-17T09:48:19.692Z,987.53
2019-05-17T09:49:19.383Z,987.51
2019-05-17T09:50:20.031Z,987.51
2019-05-17T09:51:19.635Z,987.52
2019-05-17T09:52:19.978Z,987.53
2019-05-17T09:53:20.178Z,987.47
2019-05-17T09:54:19.522Z,987.49
2019-05-17T09:55:19.728Z,987.44
2019-05-17T09:56:20.634Z,987.47
2019-05-17T09:57:20.465Z,987.42
2019-05-17T09:58:21.607Z,987.44
2019-05-17T09:59:20.401Z,987.46
2019-05-17T10:00:20.872Z,987.40
2019-05-17T10:01:19.652Z,987.34
2019-05-17T10:02:20.409Z,987.37
2019-05-17T10:03:23.713Z,987.36
2019-05-17T10:04:20.111Z,987.39
2019-05-17T10:05:20.219Z,987.37
2019-05-17T10:06:20.075Z,987.37
2019-05-17T10:07:20.815Z,987.37
2019-05-17T10:08:19.068Z,987.37
2019-05-17T10:09:19.592Z,987.32
2019-05-17T10:10:20.226Z,987.34
2019-05-17T10:11:20.338Z,987.34
2019-05-17T10:12:20.279Z,987.35
2019-05-17T10:13:20.226Z,987.38
2019-05-17T10:14:27.673Z,987.33
2019-05-17T10:15:20.723Z,987.36
2019-05-17T10:16:20.227Z,987.38
2019-05-17T10:17:21.034Z,987.35
2019-05-17T10:18:20.003Z,987.36
2019-05-17T10:19:21.862Z,987.39
2019-05-17T10:20:19.971Z,987.39
2019-05-17T10:21:19.832Z,987.35
2019-05-17T10:22:20.019Z,987.33
2019-05-17T10:23:19.694Z,987.32
2019-05-17T10:24:20.063Z,987.35
2019-05-17T10:25:20.183Z,987.35
2019-05-17T10:26:19.691Z,987.34
2019-05-17T10:27:19.622Z,987.32
2019-05-17T10:28:20.573Z,987.32
2019-05-17T10:29:18.826Z,987.35
2019-05-17T10:30:20.971Z,987.36
2019-05-17T10:31:19.735Z,987.31
2019-05-17T10:32:20.462Z,987.30
2019-05-17T10:33:20.018Z,987.33
2019-05-17T10:34:20.316Z,987.32
2019-05-17T10:35:19.919Z,987.28
2019-05-17T10:36:20.244Z,987.32
2019-05-17T10:37:20.368Z,987.30
2019-05-17T10:38:19.477Z,987.26
2019-05-17T10:39:19.389Z,987.25
2019-05-17T10:40:20.769Z,987.18
2019-05-17T10:41:19.894Z,987.22
2019-05-17T10:42:21.022Z,987.26
2019-05-17T10:43:20.399Z,987.27
2019-05-17T10:44:19.862Z,987.27
2019-05-17T10:45:19.858Z,987.24
2019-05-17T10:46:20.580Z,987.23
2019-05-17T10:47:19.544Z,987.28
2019-05-17T10:48:21.179Z,987.32
2019-05-17T10:49:20.226Z,987.36
2019-05-17T10:50:20.588Z,987.24
2019-05-17T10:51:20.305Z,987.22
2019-05-17T10:52:20.282Z,987.25
2019-05-17T10:53:20.369Z,987.25
2019-05-17T10:54:20.659Z,987.23
2019-05-17T10:55:19.999Z,987.22
2019-05-17T10:56:19.911Z,987.25
2019-05-17T10:57:19.446Z,987.24
2019-05-17T10:58:21.048Z,987.25
2019-05-17T10:59:20.299Z,987.28
2019-05-17T11:00:19.733Z,987.23
2019-05-17T11:01:20.028Z,987.24
2019-05-17T11:02:19.641Z,987.29
2019-05-17T11:03:20.329Z,987.29
2019-05-17T11:04:19.757Z,987.25
2019-05-17T11:05:20.149Z,987.27
2019-05-17T11:06:19.708Z,987.28
2019-05-17T11:07:19.919Z,987.25
2019-05-17T11:08:19.771Z,987.30
2019-05-17T11:09:20.565Z,987.27
2019-05-17T11:10:19.480Z,987.30
2019-05-17T11:11:20.055Z,987.35
2019-05-17T11:12:18.367Z,987.34
2019-05-17T11:13:18.399Z,987.34
2019-05-17T11:14:18.363Z,987.34
2019-05-17T11:15:18.330Z,987.33
2019-05-17T11:16:18.331Z,987.33
2019-05-17T11:17:18.309Z,987.33
2019-05-17T11:18:18.300Z,987.26
2019-05-17T11:19:18.329Z,987.30
2019-05-17T11:20:18.288Z,987.30
2019-05-17T11:21:18.276Z,987.28
2019-05-17T11:22:18.333Z,987.25
2019-05-17T11:23:18.315Z,987.27
2019-05-17T11:24:18.249Z,987.27
2019-05-17T11:25:18.287Z,987.28
2019-05-17T11:26:18.225Z,987.30
2019-05-17T11:27:18.229Z,987.24
2019-05-17T11:28:18.217Z,987.35
2019-05-17T11:29:18.189Z,987.31
2019-05-17T11:30:18.195Z,987.29
2019-05-17T11:31:18.264Z,987.29
2019-05-17T11:32:18.149Z,987.31
2019-05-17T11:33:18.144Z,987.33
2019-05-17T11:34:18.136Z,987.37
2019-05-17T11:35:18.116Z,987.32
2019-05-17T11:36:18.171Z,987.33
2019-05-17T11:37:18.131Z,987.34
2019-05-17T11:38:18.099Z,987.30
2019-05-17T11:39:18.075Z,987.34
2019-05-17T11:40:18.068Z,987.34
2019-05-17T11:41:21.595Z,987.39
2019-05-17T11:42:18.100Z,987.29
2019-05-17T11:43:18.085Z,987.37
2019-05-17T11:44:18.026Z,987.34
2019-05-17T11:45:27.235Z,987.38
2019-05-17T11:46:19.012Z,987.37
2019-05-17T11:47:18.000Z,987.41
2019-05-17T11:48:17.999Z,987.39
2019-05-17T11:49:18.126Z,987.33
2019-05-17T11:50:18.056Z,987.34
2019-05-17T11:51:17.986Z,987.36
2019-05-17T11:52:17.946Z,987.38
2019-05-17T11:53:17.935Z,987.38
2019-05-17T11:54:17.914Z,987.36
2019-05-17T11:55:17.963Z,987.34
2019-05-17T11:56:17.888Z,987.38
2019-05-17T11:57:18.849Z,987.38
2019-05-17T11:58:17.876Z,987.36
2019-05-17T11:59:17.862Z,987.35
2019-05-17T12:00:17.848Z,987.34
2019-05-17T12:01:17.886Z,987.36
2019-05-17T12:02:17.847Z,987.29
2019-05-17T12:03:17.828Z,987.32
2019-05-17T12:04:17.854Z,987.30
2019-05-17T12:05:17.814Z,987.32
2019-05-17T12:06:17.781Z,987.30
2019-05-17T12:07:17.834Z,987.23
2019-05-17T12:08:17.793Z,987.23
2019-05-17T12:09:17.750Z,987.25
2019-05-17T12:10:17.735Z,987.24
2019-05-17T12:11:17.848Z,987.20
2019-05-17T12:12:17.716Z,987.19
2019-05-17T12:13:17.732Z,987.22
2019-05-17T12:14:17.713Z,987.18
2019-05-17T12:15:17.684Z,987.16
2019-05-17T12:16:17.685Z,987.13
2019-05-17T12:17:17.693Z,987.14
2019-05-17T12:18:17.676Z,987.18
2019-05-17T12:19:17.828Z,987.18
2019-05-17T12:20:17.638Z,987.15
2019-05-17T12:21:17.623Z,987.18
2019-05-17T12:22:17.603Z,987.21
2019-05-17T12:23:17.599Z,987.22
2019-05-17T12:24:17.589Z,987.18
2019-05-17T12:25:17.616Z,987.17
2019-05-17T12:26:17.600Z,987.18
2019-05-17T12:27:17.621Z,987.20
2019-05-17T12:28:17.545Z,987.20